Time;durP1;ratioP1;P1;durP2;ratioP2;P2;SDS_P1;SDS_P2;PMS_P1;PMS_P2;Temp;Humidity;BMP_temperature;BMP_pressure;BME280_temperature;BME280_humidity;BME280_pressure;Samples;Min_cycle;Max_cycle;Signal;HPM_P1;HPM_P2
2022/02/27 00:01:29;;;;;;;15.32;4.65;;;7.90;84.10;;;;;;4953502;29;20039;-67
2022/02/27 00:03:56;;;;;;;12.65;3.72;;;7.90;84.20;;;;;;4954043;28;20034;-67
2022/02/27 00:06:22;;;;;;;18.92;4.10;;;7.80;84.30;;;;;;4953908;28;20031;-67
2022/02/27 00:08:48;;;;;;;11.65;3.75;;;7.90;84.40;;;;;;4953679;28;20142;-67
2022/02/27 00:11:13;;;;;;;11.70;4.10;;;7.90;84.40;;;;;;4954250;28;20035;-67
2022/02/27 00:13:39;;;;;;;13.43;3.80;;;7.80;84.40;;;;;;4953925;28;20049;-67
2022/02/27 00:16:05;;;;;;;12.13;3.65;;;7.80;84.50;;;;;;4945608;28;20046;-67
2022/02/27 00:18:31;;;;;;;14.55;4.90;;;7.80;84.70;;;;;;4950045;28;20433;-67
2022/02/27 00:20:56;;;;;;;12.63;3.35;;;7.80;84.70;;;;;;4944085;28;20035;-68
2022/02/27 00:23:23;;;;;;;10.85;3.35;;;7.70;84.80;;;;;;4947347;29;20042;-68
2022/02/27 00:25:48;;;;;;;21.48;4.15;;;7.80;85.10;;;;;;4944725;29;20118;-67
2022/02/27 00:28:14;;;;;;;18.92;3.75;;;7.80;85.20;;;;;;4953047;28;20479;-68
2022/02/27 00:30:40;;;;;;;15.90;4.45;;;7.70;85.30;;;;;;4953879;29;20031;-68
2022/02/27 00:33:06;;;;;;;17.20;4.00;;;7.70;85.20;;;;;;4949652;28;20483;-68
2022/02/27 00:35:31;;;;;;;17.30;3.58;;;7.70;85.30;;;;;;4944236;28;20122;-67
2022/02/27 00:37:57;;;;;;;13.35;3.97;;;7.70;85.40;;;;;;4951838;29;20348;-67
2022/02/27 00:40:26;;;;;;;18.50;3.92;;;7.70;85.40;;;;;;4943468;29;20062;-68
2022/02/27 00:42:51;;;;;;;10.65;3.85;;;7.60;85.50;;;;;;4945222;29;20032;-68
2022/02/27 00:45:18;;;;;;;12.70;3.58;;;7.60;85.80;;;;;;4934455;29;20039;-68
2022/02/27 00:47:44;;;;;;;16.85;4.03;;;7.60;85.70;;;;;;4951513;28;20027;-68
2022/02/27 00:50:09;;;;;;;17.75;4.50;;;7.60;85.90;;;;;;4953023;28;20035;-68
2022/02/27 00:52:35;;;;;;;12.63;3.80;;;7.60;86.30;;;;;;4953240;28;20046;-67
2022/02/27 00:55:01;;;;;;;14.88;4.00;;;7.60;86.30;;;;;;4940135;29;20051;-67
2022/02/27 00:57:29;;;;;;;11.98;4.20;;;7.50;86.20;;;;;;4951922;28;20035;-67
2022/02/27 00:59:56;;;;;;;17.65;4.35;;;7.50;86.20;;;;;;4947157;28;20046;-67
2022/02/27 01:02:23;;;;;;;18.95;5.25;;;7.50;86.20;;;;;;4951826;28;20122;-67
2022/02/27 01:04:49;;;;;;;13.85;4.78;;;7.40;86.10;;;;;;4951625;28;20031;-67
2022/02/27 01:07:15;;;;;;;14.70;4.90;;;7.40;86.10;;;;;;4949927;28;20390;-67
2022/02/27 01:09:46;;;;;;;17.80;4.25;;;7.40;86.10;;;;;;4951880;28;20156;-67
2022/02/27 01:12:12;;;;;;;14.85;4.15;;;7.40;86.20;;;;;;4951164;28;20034;-68
2022/02/27 01:14:38;;;;;;;12.73;3.65;;;7.40;86.30;;;;;;4940533;29;20036;-68
2022/02/27 01:17:06;;;;;;;9.90;3.83;;;7.40;86.40;;;;;;4950896;28;20105;-68
2022/02/27 01:19:32;;;;;;;15.02;4.38;;;7.30;86.30;;;;;;4953060;29;20035;-67
2022/02/27 01:21:58;;;;;;;9.15;3.45;;;7.30;86.30;;;;;;4952993;28;20042;-67
2022/02/27 01:24:24;;;;;;;14.35;3.70;;;7.30;87.10;;;;;;4943116;28;20058;-67
2022/02/27 01:26:49;;;;;;;15.88;4.22;;;7.30;86.50;;;;;;4952876;28;20031;-67
2022/02/27 01:29:15;;;;;;;19.98;3.80;;;7.30;86.50;;;;;;4952882;28;20372;-68
2022/02/27 01:31:40;;;;;;;15.85;4.07;;;7.30;86.50;;;;;;4952267;28;20499;-67
2022/02/27 01:34:06;;;;;;;13.57;3.78;;;7.30;86.40;;;;;;4939993;29;20031;-67
2022/02/27 01:36:32;;;;;;;15.52;4.53;;;7.30;86.60;;;;;;4952169;28;20085;-67
2022/02/27 01:38:57;;;;;;;10.25;3.90;;;7.20;86.60;;;;;;4950723;28;20489;-67
2022/02/27 01:41:23;;;;;;;11.07;3.38;;;7.20;86.70;;;;;;4938307;28;20036;-67
2022/02/27 01:43:49;;;;;;;12.68;4.38;;;7.20;86.70;;;;;;4949919;29;20035;-68
2022/02/27 01:46:17;;;;;;;15.70;4.43;;;7.20;86.70;;;;;;4939854;28;20035;-67
2022/02/27 01:48:43;;;;;;;16.70;4.55;;;7.20;86.70;;;;;;4951128;28;20034;-67
2022/02/27 01:51:11;;;;;;;16.23;4.95;;;7.10;86.50;;;;;;4952434;28;20035;-67
2022/02/27 01:53:37;;;;;;;11.93;3.53;;;7.10;86.60;;;;;;4951811;28;20499;-67
2022/02/27 01:56:03;;;;;;;12.98;3.63;;;7.10;86.80;;;;;;4952420;28;20063;-68
2022/02/27 01:58:30;;;;;;;13.70;4.35;;;7.10;86.90;;;;;;4935007;28;20155;-67
2022/02/27 02:00:57;;;;;;;16.95;3.65;;;7.00;86.90;;;;;;4962926;28;20085;-67
2022/02/27 02:03:27;;;;;;;15.65;4.35;;;7.10;87.10;;;;;;4957816;28;20544;-67
2022/02/27 02:05:55;;;;;;;21.48;4.57;;;7.00;87.10;;;;;;4956121;28;20027;-68
2022/02/27 02:08:21;;;;;;;15.18;4.53;;;7.00;87.10;;;;;;4943133;28;20545;-67
2022/02/27 02:10:48;;;;;;;13.98;3.58;;;7.00;87.10;;;;;;4945254;28;20035;-67
2022/02/27 02:13:14;;;;;;;13.07;4.03;;;6.90;87.10;;;;;;4950532;28;20555;-68
2022/02/27 02:15:40;;;;;;;11.88;4.57;;;6.90;87.30;;;;;;4940418;28;20130;-67
2022/02/27 02:18:07;;;;;;;13.25;3.83;;;6.90;87.30;;;;;;4948562;29;20183;-67
2022/02/27 02:20:34;;;;;;;17.45;4.30;;;6.90;87.40;;;;;;4939265;28;20038;-67
2022/02/27 02:22:59;;;;;;;11.55;4.10;;;6.80;87.50;;;;;;4949990;28;20529;-68
2022/02/27 02:25:25;;;;;;;10.02;3.65;;;6.80;87.50;;;;;;4952079;29;20031;-67
2022/02/27 02:27:53;;;;;;;13.50;4.35;;;6.80;88.10;;;;;;4950061;28;20027;-67
2022/02/27 02:30:18;;;;;;;15.10;3.85;;;6.80;87.70;;;;;;4950779;28;20084;-67
2022/02/27 02:32:51;;;;;;;7.60;2.70;;;6.80;87.80;;;;;;4937701;29;20038;-68
2022/02/27 02:35:18;;;;;;;14.85;4.72;;;6.80;88.00;;;;;;4950176;28;20035;-67
2022/02/27 02:37:45;;;;;;;11.55;4.45;;;6.80;88.10;;;;;;4937960;28;20506;-67
2022/02/27 02:40:12;;;;;;;10.32;3.63;;;6.80;88.10;;;;;;4948202;28;20039;-67
2022/02/27 02:42:42;;;;;;;14.55;4.43;;;6.80;88.20;;;;;;4940947;29;20360;-67
2022/02/27 02:45:11;;;;;;;12.90;4.30;;;6.70;88.20;;;;;;4959910;28;20502;-67
2022/02/27 02:47:41;;;;;;;24.83;5.30;;;6.70;88.20;;;;;;4942332;29;20479;-67
2022/02/27 02:50:07;;;;;;;10.55;3.88;;;6.70;88.40;;;;;;4937209;28;20040;-67
2022/02/27 02:52:33;;;;;;;15.07;4.00;;;6.70;88.40;;;;;;4939599;28;20034;-67
2022/02/27 02:55:03;;;;;;;10.60;3.28;;;6.70;88.40;;;;;;4947285;29;20079;-67
2022/02/27 02:57:29;;;;;;;9.85;3.55;;;6.70;88.60;;;;;;4951407;29;20039;-67
2022/02/27 02:59:55;;;;;;;13.80;3.95;;;6.70;88.80;;;;;;4945739;28;20063;-67
2022/02/27 03:02:21;;;;;;;14.63;3.88;;;6.70;88.90;;;;;;4933342;28;20067;-67
2022/02/27 03:04:46;;;;;;;12.57;3.83;;;6.70;89.00;;;;;;4950730;29;20039;-67
2022/02/27 03:07:12;;;;;;;13.60;3.75;;;6.70;89.20;;;;;;4951239;29;20028;-68
2022/02/27 03:09:38;;;;;;;20.05;5.10;;;6.70;89.20;;;;;;4950867;28;20392;-67
2022/02/27 03:12:05;;;;;;;12.80;4.20;;;6.70;89.30;;;;;;4938899;28;20024;-67
2022/02/27 03:14:31;;;;;;;17.00;3.33;;;6.70;89.40;;;;;;4951141;28;20043;-67
2022/02/27 03:16:56;;;;;;;19.77;4.70;;;6.60;89.30;;;;;;4942186;29;20462;-67
2022/02/27 03:19:22;;;;;;;17.13;4.43;;;6.60;89.30;;;;;;4951866;28;20027;-67
2022/02/27 03:21:47;;;;;;;14.13;4.32;;;6.60;89.30;;;;;;4954856;28;20130;-67
2022/02/27 03:24:13;;;;;;;13.48;4.13;;;6.60;89.30;;;;;;4941874;28;20028;-67
2022/02/27 03:26:40;;;;;;;8.73;3.45;;;6.60;89.30;;;;;;4945153;28;20031;-67
2022/02/27 03:29:05;;;;;;;12.93;3.65;;;6.50;89.40;;;;;;4935375;28;20507;-67
2022/02/27 03:31:31;;;;;;;12.65;4.40;;;6.50;89.30;;;;;;4946115;28;20063;-67
2022/02/27 03:33:57;;;;;;;16.40;3.40;;;6.50;89.30;;;;;;4954492;28;20031;-67
2022/02/27 03:36:22;;;;;;;17.10;4.40;;;6.60;89.50;;;;;;4954407;28;20054;-67
2022/02/27 03:38:48;;;;;;;11.38;3.95;;;6.50;89.50;;;;;;4953877;28;20031;-67
2022/02/27 03:41:14;;;;;;;12.23;3.70;;;6.50;89.50;;;;;;4954449;28;20073;-67
2022/02/27 03:43:39;;;;;;;5.90;2.22;;;6.50;89.60;;;;;;4941503;29;20059;-67
2022/02/27 03:46:05;;;;;;;9.27;4.05;;;6.50;89.70;;;;;;4954026;29;20114;-67
2022/02/27 03:48:31;;;;;;;10.02;3.65;;;6.50;89.80;;;;;;4954135;28;20035;-67
2022/02/27 03:50:57;;;;;;;10.60;3.97;;;6.50;89.70;;;;;;4954265;28;20035;-67
2022/02/27 03:53:23;;;;;;;18.23;4.20;;;6.40;89.80;;;;;;4953966;28;20031;-67
2022/02/27 03:55:49;;;;;;;8.25;3.15;;;6.50;89.90;;;;;;4953856;29;20398;-68
2022/02/27 03:58:14;;;;;;;18.55;3.85;;;6.50;90.00;;;;;;4953734;28;20037;-67
2022/02/27 04:00:40;;;;;;;14.38;4.07;;;6.50;90.00;;;;;;4947280;28;20038;-67
2022/02/27 04:03:08;;;;;;;11.40;4.65;;;6.40;90.00;;;;;;4945820;29;20036;-67
2022/02/27 04:05:34;;;;;;;12.27;3.83;;;6.40;90.10;;;;;;4943740;28;20040;-67
2022/02/27 04:08:00;;;;;;;12.50;3.90;;;6.40;90.10;;;;;;4941608;29;20027;-67
2022/02/27 04:10:27;;;;;;;11.55;3.63;;;6.40;90.10;;;;;;4941053;28;20032;-67
2022/02/27 04:12:52;;;;;;;8.85;3.42;;;6.30;90.10;;;;;;4947546;28;20142;-67
2022/02/27 04:15:18;;;;;;;18.90;3.83;;;6.30;90.20;;;;;;5004407;28;20126;-67
2022/02/27 04:17:44;;;;;;;12.60;4.60;;;6.30;90.30;;;;;;4953744;28;20139;-67
2022/02/27 04:20:09;;;;;;;12.25;4.03;;;6.30;90.20;;;;;;4953328;28;20618;-68
2022/02/27 04:22:35;;;;;;;10.82;3.50;;;6.30;90.20;;;;;;4953664;28;20023;-68
2022/02/27 04:25:01;;;;;;;10.27;3.67;;;6.20;90.10;;;;;;4944260;28;20164;-67
2022/02/27 04:27:26;;;;;;;10.30;4.43;;;6.30;90.20;;;;;;4950712;28;20104;-67
2022/02/27 04:29:52;;;;;;;11.43;4.25;;;6.30;90.10;;;;;;4953977;28;20454;-67
2022/02/27 04:32:18;;;;;;;14.27;3.92;;;6.30;90.10;;;;;;4940729;28;20042;-67
2022/02/27 04:34:44;;;;;;;11.80;3.75;;;6.20;90.10;;;;;;4953204;28;20024;-67
2022/02/27 04:37:10;;;;;;;24.88;4.72;;;6.20;90.10;;;;;;4953397;28;20482;-67
2022/02/27 04:39:36;;;;;;;13.48;4.20;;;6.20;90.10;;;;;;4953762;28;20035;-67
2022/02/27 04:42:02;;;;;;;16.75;4.60;;;6.20;90.20;;;;;;4940220;28;20578;-67
2022/02/27 04:44:27;;;;;;;16.70;3.70;;;6.20;90.20;;;;;;4953890;28;20114;-67
2022/02/27 04:46:53;;;;;;;14.13;3.97;;;6.10;90.10;;;;;;4947952;28;20027;-67
2022/02/27 04:49:19;;;;;;;9.50;3.67;;;6.10;90.20;;;;;;4946541;29;20031;-67
2022/02/27 04:51:44;;;;;;;14.95;4.85;;;6.10;90.10;;;;;;4941388;28;20039;-67
2022/02/27 04:54:10;;;;;;;5.75;3.40;;;6.10;90.10;;;;;;4953082;29;20031;-66
2022/02/27 04:56:36;;;;;;;10.73;4.07;;;6.10;90.00;;;;;;4940169;28;20513;-67
2022/02/27 04:59:01;;;;;;;13.30;4.10;;;6.00;90.10;;;;;;4953216;28;20492;-68
2022/02/27 05:01:27;;;;;;;8.07;3.30;;;6.00;90.00;;;;;;4946381;28;20361;-67
2022/02/27 05:03:53;;;;;;;15.75;3.58;;;6.00;90.00;;;;;;4947268;28;20571;-67
2022/02/27 05:06:18;;;;;;;4.90;2.70;;;5.90;90.00;;;;;;4953413;28;20050;-67
2022/02/27 05:08:44;;;;;;;5.03;2.80;;;5.90;90.00;;;;;;4952967;28;20032;-67
2022/02/27 05:11:09;;;;;;;11.32;3.83;;;5.90;90.00;;;;;;4952774;28;20396;-67
2022/02/27 05:13:35;;;;;;;9.15;3.08;;;5.90;90.00;;;;;;4952867;28;20032;-67
2022/02/27 05:16:01;;;;;;;8.18;3.85;;;5.90;90.10;;;;;;4952450;29;20466;-67
2022/02/27 05:18:26;;;;;;;14.32;3.30;;;5.90;90.10;;;;;;4943597;29;20024;-67
2022/02/27 05:20:55;;;;;;;17.48;4.05;;;5.80;90.10;;;;;;4949327;29;20636;-67
2022/02/27 05:23:21;;;;;;;10.00;3.10;;;5.80;90.10;;;;;;4952666;28;20023;-67
2022/02/27 05:25:47;;;;;;;8.10;3.72;;;5.80;90.10;;;;;;4952945;28;20032;-67
2022/02/27 05:28:13;;;;;;;12.10;4.10;;;5.80;90.10;;;;;;4952846;28;20029;-67
2022/02/27 05:30:38;;;;;;;20.38;3.72;;;5.80;90.00;;;;;;4948207;28;20036;-67
2022/02/27 05:33:04;;;;;;;10.20;3.40;;;5.80;90.00;;;;;;4933792;29;20040;-66
2022/02/27 05:35:30;;;;;;;13.77;3.25;;;5.80;90.10;;;;;;4950429;29;20338;-67
2022/02/27 05:37:55;;;;;;;7.35;3.08;;;5.70;90.00;;;;;;4952506;29;20070;-66
2022/02/27 05:40:21;;;;;;;13.00;3.97;;;5.70;90.00;;;;;;4951854;28;20039;-66
2022/02/27 05:42:47;;;;;;;10.02;3.78;;;5.70;90.00;;;;;;4952594;28;20130;-67
2022/02/27 05:45:12;;;;;;;16.92;4.47;;;5.70;90.00;;;;;;4934271;28;20063;-66
2022/02/27 05:47:38;;;;;;;8.05;3.55;;;5.70;90.00;;;;;;4945380;29;20031;-66
2022/02/27 05:50:05;;;;;;;9.32;3.42;;;5.70;90.00;;;;;;4939539;28;20040;-67
2022/02/27 05:52:31;;;;;;;8.05;3.35;;;5.80;90.10;;;;;;4952394;28;20028;-67
2022/02/27 05:54:56;;;;;;;9.57;3.35;;;5.70;90.00;;;;;;4952222;28;20161;-66
2022/02/27 05:57:22;;;;;;;12.73;3.08;;;5.70;90.00;;;;;;4951804;28;20502;-67
2022/02/27 05:59:48;;;;;;;9.57;3.50;;;5.70;90.10;;;;;;4951876;28;20177;-67
2022/02/27 06:02:14;;;;;;;16.80;4.70;;;5.70;90.00;;;;;;4952623;28;20071;-67
2022/02/27 06:04:39;;;;;;;12.70;4.35;;;5.70;90.10;;;;;;4939435;28;20027;-67
2022/02/27 06:07:05;;;;;;;10.88;4.15;;;5.70;90.10;;;;;;4951819;28;20035;-67
2022/02/27 06:09:31;;;;;;;8.68;4.00;;;5.70;90.10;;;;;;4952692;28;20023;-67
2022/02/27 06:11:57;;;;;;;9.93;3.63;;;5.70;90.00;;;;;;4951890;29;20386;-67
2022/02/27 06:14:23;;;;;;;12.95;3.85;;;5.70;90.10;;;;;;4951633;28;20368;-66
2022/02/27 06:16:49;;;;;;;6.97;2.60;;;5.70;90.00;;;;;;4952247;28;20046;-67
2022/02/27 06:19:17;;;;;;;13.32;3.85;;;5.60;90.10;;;;;;4951662;28;20471;-67
2022/02/27 06:21:43;;;;;;;11.07;3.45;;;5.60;90.20;;;;;;4951944;29;20035;-67
2022/02/27 06:24:09;;;;;;;11.55;3.70;;;5.60;90.20;;;;;;4939161;29;20104;-67
2022/02/27 06:26:35;;;;;;;13.50;4.28;;;5.60;90.30;;;;;;4941888;28;20398;-67
2022/02/27 06:29:02;;;;;;;16.55;3.95;;;5.60;90.30;;;;;;4949520;29;20027;-67
2022/02/27 06:31:29;;;;;;;9.90;3.15;;;5.60;90.30;;;;;;4951909;28;20051;-67
2022/02/27 06:34:01;;;;;;;11.10;2.80;;;5.60;90.40;;;;;;4951441;28;20093;-67
2022/02/27 06:36:26;;;;;;;11.27;3.10;;;5.50;90.30;;;;;;4952240;28;20093;-67
2022/02/27 06:38:52;;;;;;;9.32;3.58;;;5.50;90.40;;;;;;4941217;28;20430;-66
2022/02/27 06:41:17;;;;;;;9.27;2.75;;;5.50;90.40;;;;;;4958700;28;20463;-67
2022/02/27 06:43:43;;;;;;;7.10;3.08;;;5.50;90.40;;;;;;4962564;28;20027;-67
2022/02/27 06:46:09;;;;;;;6.32;2.75;;;5.50;90.40;;;;;;4950630;28;20031;-67
2022/02/27 06:48:35;;;;;;;5.97;2.85;;;5.50;90.60;;;;;;4961558;28;20039;-66
2022/02/27 06:51:00;;;;;;;7.20;3.08;;;5.50;90.60;;;;;;4961987;28;20021;-67
2022/02/27 06:53:26;;;;;;;8.65;3.35;;;5.50;90.60;;;;;;4961413;28;20502;-67
2022/02/27 06:55:52;;;;;;;14.73;3.20;;;5.50;90.60;;;;;;4950184;28;20568;-69
2022/02/27 06:58:18;;;;;;;3.80;1.85;;;5.50;90.60;;;;;;4962220;28;20023;-67
2022/02/27 07:00:44;;;;;;;8.73;3.17;;;5.50;90.70;;;;;;4950214;28;20395;-67
2022/02/27 07:03:10;;;;;;;8.80;3.33;;;5.50;90.70;;;;;;4972980;28;20026;-67
2022/02/27 07:05:36;;;;;;;6.55;3.22;;;5.50;90.70;;;;;;4978851;28;20040;-67
2022/02/27 07:08:02;;;;;;;4.25;2.90;;;5.50;90.80;;;;;;4940707;28;20122;-68
2022/02/27 07:10:28;;;;;;;12.85;2.70;;;5.50;90.80;;;;;;4932057;29;20171;-67
2022/02/27 07:12:53;;;;;;;5.47;2.42;;;5.50;90.80;;;;;;4937605;28;20035;-67
2022/02/27 07:15:19;;;;;;;3.65;2.05;;;5.50;90.80;;;;;;4951283;28;20035;-67
2022/02/27 07:17:45;;;;;;;5.88;2.53;;;5.50;90.80;;;;;;4950676;28;20032;-67
2022/02/27 07:20:11;;;;;;;5.38;2.97;;;5.40;90.80;;;;;;4941529;29;20043;-66
2022/02/27 07:22:37;;;;;;;9.80;2.97;;;5.40;90.80;;;;;;4950429;28;20059;-67
2022/02/27 07:25:08;;;;;;;2.85;1.42;;;5.40;90.90;;;;;;4969294;28;20467;-67
2022/02/27 07:27:34;;;;;;;1.17;1.08;;;5.40;90.90;;;;;;4949746;29;20067;-68
2022/02/27 07:30:01;;;;;;;4.22;1.60;;;5.40;91.00;;;;;;4949954;29;20482;-67
2022/02/27 07:32:29;;;;;;;12.05;3.97;;;5.40;91.10;;;;;;4961659;28;20050;-66
2022/02/27 07:34:55;;;;;;;7.97;2.28;;;5.40;91.10;;;;;;4961285;28;20035;-67
2022/02/27 07:37:20;;;;;;;7.22;3.70;;;5.40;91.10;;;;;;4972176;28;20108;-68
2022/02/27 07:39:46;;;;;;;3.58;2.13;;;5.30;91.10;;;;;;4951064;29;20031;-67
2022/02/27 07:42:11;;;;;;;4.10;2.00;;;5.30;91.20;;;;;;4938460;28;20035;-69
2022/02/27 07:44:37;;;;;;;13.30;3.55;;;5.30;91.20;;;;;;4948452;28;20035;-69
2022/02/27 07:47:03;;;;;;;3.55;1.90;;;5.40;91.30;;;;;;4950300;28;20126;-69
2022/02/27 07:49:29;;;;;;;15.50;2.42;;;5.30;91.30;;;;;;4954676;28;20015;-68
2022/02/27 07:51:55;;;;;;;7.28;2.25;;;5.40;91.30;;;;;;4949693;28;20062;-70
2022/02/27 07:54:21;;;;;;;9.38;3.67;;;5.40;91.40;;;;;;4961106;28;20034;-69
2022/02/27 07:56:48;;;;;;;5.13;2.22;;;5.30;91.30;;;;;;4942503;28;20044;-70
2022/02/27 07:59:14;;;;;;;12.10;2.90;;;5.40;91.40;;;;;;4948446;28;20388;-70
2022/02/27 08:01:39;;;;;;;9.05;2.15;;;5.40;91.40;;;;;;4947651;28;20031;-70
2022/02/27 08:04:05;;;;;;;12.10;3.40;;;5.30;91.40;;;;;;4943031;29;20065;-70
2022/02/27 08:06:35;;;;;;;12.82;3.20;;;5.30;91.50;;;;;;4953742;28;20111;-70
2022/02/27 08:09:02;;;;;;;6.15;2.63;;;5.40;91.50;;;;;;4943738;28;20433;-70
2022/02/27 08:11:28;;;;;;;9.88;3.70;;;5.30;91.60;;;;;;4950268;29;20027;-70
2022/02/27 08:13:54;;;;;;;10.75;3.45;;;5.40;91.60;;;;;;5006206;28;20405;-70
2022/02/27 08:16:19;;;;;;;9.55;2.25;;;5.40;91.70;;;;;;4949023;28;20043;-70
2022/02/27 08:18:45;;;;;;;14.32;1.95;;;5.40;91.70;;;;;;4953683;28;20486;-70
2022/02/27 08:21:10;;;;;;;4.15;2.13;;;5.40;91.80;;;;;;4953107;28;20057;-70
2022/02/27 08:23:42;;;;;;;9.30;3.58;;;5.50;91.90;;;;;;4953779;29;20110;-70
2022/02/27 08:26:08;;;;;;;1.42;0.77;;;5.50;91.90;;;;;;4947706;28;20082;-70
2022/02/27 08:28:33;;;;;;;4.72;2.13;;;5.50;91.90;;;;;;4947673;29;20493;-70
2022/02/27 08:31:00;;;;;;;11.70;2.80;;;5.50;92.00;;;;;;4953816;28;20149;-70
2022/02/27 08:33:26;;;;;;;1.25;1.08;;;5.50;92.00;;;;;;4953029;29;20031;-70
2022/02/27 08:35:52;;;;;;;4.22;2.00;;;5.50;92.00;;;;;;4953875;28;20042;-70
2022/02/27 08:38:20;;;;;;;5.38;2.45;;;5.60;92.10;;;;;;4940758;28;20118;-70
2022/02/27 08:40:46;;;;;;;6.13;2.60;;;5.60;92.00;;;;;;4953320;28;20093;-70
2022/02/27 08:43:12;;;;;;;8.80;3.78;;;5.60;92.00;;;;;;4940068;28;20027;-70
2022/02/27 08:45:37;;;;;;;6.28;2.83;;;5.70;92.00;;;;;;4935362;28;20081;-70
2022/02/27 08:48:03;;;;;;;10.65;2.92;;;5.70;91.90;;;;;;4937046;29;20078;-70
2022/02/27 08:50:29;;;;;;;7.30;2.42;;;5.70;91.90;;;;;;4953706;29;20085;-70
2022/02/27 08:52:55;;;;;;;11.88;2.75;;;5.70;91.90;;;;;;4953083;28;20066;-70
2022/02/27 08:55:22;;;;;;;9.88;3.78;;;5.70;91.80;;;;;;4952998;28;20510;-70
2022/02/27 08:57:48;;;;;;;11.48;3.45;;;5.80;91.80;;;;;;4940678;28;20106;-70
2022/02/27 09:00:16;;;;;;;9.27;3.40;;;5.80;91.80;;;;;;4944088;29;20126;-70
2022/02/27 09:02:42;;;;;;;11.00;3.58;;;5.80;91.70;;;;;;4950461;29;20475;-70
2022/02/27 09:05:11;;;;;;;19.20;4.63;;;5.80;91.70;;;;;;4953589;28;20027;-69
2022/02/27 09:07:37;;;;;;;14.43;3.83;;;5.80;91.70;;;;;;4943562;28;20040;-70
2022/02/27 09:10:05;;;;;;;13.70;3.22;;;5.90;91.70;;;;;;4952830;28;20050;-70
2022/02/27 09:12:31;;;;;;;7.10;2.80;;;5.90;91.70;;;;;;4952970;28;20035;-70
2022/02/27 09:14:57;;;;;;;19.67;4.57;;;5.90;91.80;;;;;;4947330;28;20574;-70
2022/02/27 09:17:23;;;;;;;8.13;3.63;;;5.90;91.80;;;;;;4952676;29;20133;-70
2022/02/27 09:19:49;;;;;;;12.38;3.38;;;5.90;91.80;;;;;;4952030;28;20134;-70
2022/02/27 09:22:15;;;;;;;4.70;2.80;;;5.90;91.80;;;;;;4951808;28;20051;-70
2022/02/27 09:24:41;;;;;;;10.60;3.58;;;5.90;91.80;;;;;;4941302;29;20028;-70
2022/02/27 09:27:07;;;;;;;15.60;3.80;;;6.00;91.80;;;;;;4952872;28;20394;-71
2022/02/27 09:29:32;;;;;;;15.68;3.72;;;5.90;91.80;;;;;;4952716;28;20513;-71
2022/02/27 09:31:59;;;;;;;10.32;3.70;;;6.00;91.80;;;;;;4952927;28;20039;-70
2022/02/27 09:34:25;;;;;;;8.32;2.92;;;6.10;91.80;;;;;;4952862;28;20027;-70
2022/02/27 09:36:51;;;;;;;12.43;3.95;;;6.10;91.80;;;;;;4936782;28;20043;-70
2022/02/27 09:39:17;;;;;;;11.85;3.97;;;6.20;91.80;;;;;;4933771;29;20023;-69
2022/02/27 09:41:44;;;;;;;9.15;3.05;;;6.20;91.80;;;;;;4937254;28;20027;-70
2022/02/27 09:44:10;;;;;;;6.88;2.70;;;6.20;91.70;;;;;;4942722;28;20181;-70
2022/02/27 09:46:37;;;;;;;10.65;3.60;;;6.30;91.70;;;;;;4949729;29;20106;-70
2022/02/27 09:49:04;;;;;;;10.40;3.22;;;6.20;91.70;;;;;;4952567;29;20043;-70
2022/02/27 09:51:29;;;;;;;8.13;3.80;;;6.30;91.70;;;;;;4953695;28;20113;-70
2022/02/27 09:53:55;;;;;;;11.27;3.10;;;6.30;91.70;;;;;;4952618;28;20063;-70
2022/02/27 09:56:21;;;;;;;11.98;4.05;;;6.40;91.70;;;;;;4940159;28;20585;-70
2022/02/27 09:58:47;;;;;;;12.77;3.67;;;6.40;91.60;;;;;;4952007;28;20114;-70
2022/02/27 10:01:14;;;;;;;12.73;4.00;;;6.40;91.50;;;;;;4952672;28;20062;-70
2022/02/27 10:03:41;;;;;;;13.25;4.00;;;6.50;91.60;;;;;;4941185;28;20048;-70
2022/02/27 10:06:09;;;;;;;8.52;3.00;;;6.50;91.60;;;;;;4945339;29;20034;-70
2022/02/27 10:08:40;;;;;;;9.05;2.55;;;6.60;91.60;;;;;;4946914;28;20085;-70
2022/02/27 10:11:07;;;;;;;8.38;3.35;;;6.70;91.60;;;;;;4952374;28;20039;-70
2022/02/27 10:13:34;;;;;;;11.40;3.45;;;6.70;91.50;;;;;;4951556;28;20435;-70
2022/02/27 10:16:12;;;;;;;10.43;3.25;;;6.70;91.50;;;;;;4951771;28;20522;-70
2022/02/27 10:18:42;;;;;;;12.48;3.33;;;6.70;91.50;;;;;;4951821;29;20034;-70
2022/02/27 10:21:21;;;;;;;6.00;1.10;;;6.80;91.50;;;;;;4951895;28;20038;-70
2022/02/27 10:24:00;;;;;;;1.40;0.90;;;6.90;91.60;;;;;;4951822;28;20475;-70
2022/02/27 10:26:28;;;;;;;6.72;2.72;;;6.90;91.80;;;;;;4942990;28;20032;-70
2022/02/27 10:29:16;;;;;;;8.57;3.08;;;7.00;91.60;;;;;;4948677;29;20479;-70
2022/02/27 10:31:47;;;;;;;12.45;3.15;;;7.00;91.40;;;;;;4939729;28;20035;-70
2022/02/27 10:34:16;;;;;;;8.60;3.60;;;7.00;91.20;;;;;;4932624;28;20042;-70
2022/02/27 10:37:03;;;;;;;9.43;3.53;;;7.10;91.20;;;;;;4946826;28;20039;-70
2022/02/27 10:39:46;;;;;;;7.90;2.88;;;7.10;91.20;;;;;;4941895;28;20046;-70
2022/02/27 10:42:25;;;;;;;9.07;3.40;;;7.10;91.10;;;;;;4933210;28;20067;-70
2022/02/27 10:44:52;;;;;;;12.25;3.75;;;7.10;91.10;;;;;;4934710;29;20036;-70
2022/02/27 10:47:27;;;;;;;6.22;2.80;;;7.20;91.00;;;;;;4951552;28;20032;-70
2022/02/27 10:49:55;;;;;;;4.65;2.92;;;7.20;91.20;;;;;;4938890;28;20031;-70
2022/02/27 10:52:26;;;;;;;7.72;2.60;;;7.30;91.00;;;;;;4951800;28;20384;-70
2022/02/27 10:55:00;;;;;;;11.80;3.42;;;7.30;91.00;;;;;;4945986;28;20048;-70
2022/02/27 10:57:34;;;;;;;7.63;2.95;;;7.30;90.80;;;;;;4933808;29;20048;-70
2022/02/27 11:00:14;;;;;;;12.57;3.65;;;7.40;90.80;;;;;;4940687;28;20042;-70
2022/02/27 11:02:41;;;;;;;11.10;3.22;;;7.40;90.60;;;;;;4938295;28;20027;-70
2022/02/27 11:05:13;;;;;;;6.97;2.95;;;7.40;90.70;;;;;;4941086;29;20039;-70
2022/02/27 11:07:41;;;;;;;8.85;3.30;;;7.50;90.80;;;;;;4939007;28;20040;-70
2022/02/27 11:10:12;;;;;;;9.00;3.45;;;7.50;90.90;;;;;;4939178;28;20048;-70
2022/02/27 11:12:38;;;;;;;2.80;1.13;;;7.60;90.60;;;;;;4938580;28;20038;-70
2022/02/27 11:15:05;;;;;;;8.02;2.67;;;7.60;90.60;;;;;;4945334;28;20035;-70
2022/02/27 11:17:32;;;;;;;4.72;2.65;;;7.70;90.50;;;;;;4938628;28;20043;-70
2022/02/27 11:19:59;;;;;;;6.22;2.47;;;7.70;90.40;;;;;;4941037;28;20114;-70
2022/02/27 11:22:28;;;;;;;9.88;3.15;;;7.70;90.30;;;;;;4950752;28;20483;-70
2022/02/27 11:25:00;;;;;;;7.15;2.80;;;7.80;90.30;;;;;;4951552;28;20395;-70
2022/02/27 11:27:28;;;;;;;11.70;3.38;;;7.80;90.20;;;;;;4947037;28;20036;-70
2022/02/27 11:29:58;;;;;;;10.43;3.30;;;7.90;89.90;;;;;;4942858;28;20035;-70
2022/02/27 11:32:26;;;;;;;18.25;2.45;;;7.90;89.80;;;;;;4951431;28;20042;-70
2022/02/27 11:34:53;;;;;;;9.40;2.58;;;7.90;89.80;;;;;;4951204;28;20038;-70
2022/02/27 11:37:46;;;;;;;10.80;3.95;;;8.00;90.00;;;;;;4945449;28;20051;-70
2022/02/27 11:40:29;;;;;;;11.20;3.58;;;8.00;90.00;;;;;;4948037;28;20031;-70
2022/02/27 11:42:55;;;;;;;9.00;2.30;;;8.00;90.10;;;;;;4948423;28;20040;-70
2022/02/27 11:45:34;;;;;;;6.15;2.65;;;8.10;90.40;;;;;;4954427;28;20026;-70
2022/02/27 11:48:00;;;;;;;8.80;3.38;;;8.10;90.30;;;;;;4942189;28;20032;-70
2022/02/27 11:50:43;;;;;;;8.07;3.53;;;8.20;90.30;;;;;;4954016;29;20031;-70
2022/02/27 11:53:20;;;;;;;11.53;2.37;;;8.30;90.10;;;;;;4954445;28;20108;-70
2022/02/27 11:55:46;;;;;;;5.97;3.15;;;8.30;90.40;;;;;;4953709;28;20051;-70
2022/02/27 11:58:28;;;;;;;2.92;0.77;;;8.30;90.10;;;;;;4953972;28;20023;-70
2022/02/27 12:01:03;;;;;;;8.88;3.30;;;8.30;90.20;;;;;;4938735;28;20039;-70
2022/02/27 12:03:47;;;;;;;2.78;1.60;;;8.40;90.00;;;;;;4935263;28;20040;-70
2022/02/27 12:06:12;;;;;;;8.98;2.38;;;8.40;90.30;;;;;;4941457;29;20031;-70
2022/02/27 12:08:52;;;;;;;5.28;2.70;;;8.40;90.10;;;;;;4953742;28;20077;-70
2022/02/27 12:11:29;;;;;;;12.88;3.33;;;8.50;90.00;;;;;;4945434;28;20043;-70
2022/02/27 12:14:04;;;;;;;5.95;2.78;;;8.50;89.50;;;;;;4951596;28;20114;-70
2022/02/27 12:16:37;;;;;;;2.05;1.35;;;8.60;88.50;;;;;;4947451;29;20441;-70
2022/02/27 12:19:04;;;;;;;8.68;2.60;;;8.60;90.00;;;;;;4947037;28;20069;-70
2022/02/27 12:21:40;;;;;;;14.43;3.40;;;8.60;90.10;;;;;;4942820;29;20043;-70
2022/02/27 12:24:14;;;;;;;12.95;3.33;;;8.70;89.40;;;;;;4953098;28;20037;-67
2022/02/27 12:26:43;;;;;;;9.27;2.78;;;8.70;89.30;;;;;;4942899;29;20063;-71
2022/02/27 12:29:19;;;;;;;6.63;2.63;;;8.70;89.00;;;;;;4953235;28;20050;-67
2022/02/27 12:31:45;;;;;;;7.85;3.15;;;8.80;89.40;;;;;;4955164;28;20041;-69
2022/02/27 12:34:13;;;;;;;4.30;2.13;;;8.70;88.40;;;;;;4950200;28;20028;-68
2022/02/27 12:36:39;;;;;;;4.25;1.55;;;8.80;88.50;;;;;;4955198;28;20126;-69
2022/02/27 12:39:16;;;;;;;10.38;3.63;;;8.80;88.50;;;;;;4951134;29;20194;-69
2022/02/27 12:41:44;;;;;;;13.65;3.45;;;8.90;87.90;;;;;;4952367;28;20077;-69
2022/02/27 12:44:16;;;;;;;7.95;2.88;;;8.80;87.10;;;;;;4962144;28;21439;-68
2022/02/27 12:46:42;;;;;;;6.68;2.50;;;8.90;87.10;;;;;;4959458;28;20069;-68
2022/02/27 12:51:53;;;;;;;12.00;2.40;;;8.90;86.80;;;;;;4950745;28;20031;-69
2022/02/27 12:54:23;;;;;;;5.78;2.75;;;9.00;86.90;;;;;;4948384;28;20130;-69